Aeroporto :
LOGIN :

Iscrizione | Disclaimer

   EN    FR    IT 

 










Sommario :    VFR   VFR Marginale   IFR   IFR Intensivo   IFR Molto Intensivo
Visibilità : 
Base nubi : 
>= 8 km
>= 3000ft
5 / 8 km
1000 / 3000 ft
1500m / 5 km
500 / 1000 ft
800 / 1500m
200 / 500 ft
< 800m
< 200 ft
Simboli :   Temporali  Nebbia  Neve Forte  Precipitazioni Forti  Vento > 20 kt
SIGMETs :   Varie  Temporali  Ghiacco  Turbolenza  Onda orograficha  Ceneri Vulcaniche







- Altitudine del aeroporto : 257 ft
- Codice IATA : MAN
- Carte del aeroporto


EGCC - Manchester

ULTIMO METAR :
  • 230150Z AUTO VRB02KT 9999 NCD 15/14 Q1023 NOSIG

METARs OBSOLETI :
  • 230120Z AUTO 17004KT 130V200 9999 NCD 15/15 Q1023 NOSIG
  • 230050Z AUTO VRB02KT 9999 NCD 15/15 Q1023 NOSIG
  • 230020Z AUTO 17004KT 9999 NCD 15/14 Q1023 NOSIG
  • 222350Z AUTO 19005KT 9999 NCD 15/14 Q1023
  • 222320Z AUTO 20005KT 160V230 9999 NCD 16/15 Q1023 NOSIG

TAF TAF EGCC
Valido dal 23 a 00 ore il 24 a 06 ore UTC


222255Z 2300/2406 18005KT 9999 SCT025
PROB30
TEMPO 2300/2309 8000 BKN008
ATIS : +44 161 499 2324
Nessun NOTAM noto per questo aeroporto.



MetMap, La meteo Aeronautica in un colpo d'occhio ! - Copyright ORBIFLY Dicembre 2007 - Disclaimer

ORBIFLY MET'MAP TEAM :

Programmazione e sviluppo : Alexandra Zaïnal
Concezione e sviluppo : Baudouin d'Aumeries
Co-Programmazione e sviluppo : Marc-Olivier Méhu
Supporto tecnico e logistico : Manuel Goepfert
Aiuto per la traduzione : Arnaldo La Scala

Contatto : metmap@orbifly.com




FONTI E CREDITI :

   NOAA